All
Hay Airport (Hay, New South Wales) HXX Weather
|
Hay, New South Wales (HXX / YHAY)
Clear skies
Calm winds |
|
46 °F |
There is no TAF data available at HXX or any nearby airports.
Recent HXX METAR history
| Date | Time (AEST) | Flight Rules | Wind Dir. | Speed | Type | Height AGL (ft) | Visibility | Temp (°C) | Temp (°F) | Dew Point (°C) | Dew Point (°F) | Rel. Humid. | Pressure | Density Altitude | Remarks |
|---|---|---|---|---|---|---|---|---|---|---|---|---|---|---|---|
| 05-May | 11:00PM | n/a | Calm | Missing | 8° | 46° | 7° | 44° | 93% | 1023 mb | -824 ft | ||||
| 05-May | 10:00PM | n/a | Calm | Missing | 8° | 46° | 8° | 46° | 100% | 1024 mb | -854 ft | ||||
| 05-May | 09:00PM | n/a | 210° | 1 kt | Missing | 10° | 50° | 9° | 48° | 93% | 1024 mb | -614 ft | |||
| 05-May | 08:00PM | n/a | 210° | 8 kt | Missing | 12° | 53° | 10° | 50° | 88% | 1023 mb | -344 ft | |||
| 05-May | 07:00PM | n/a | 230° | 8 kt | Missing | 14° | 57° | 10° | 50° | 77% | 1023 mb | -104 ft | |||
| 05-May | 06:00PM | n/a | 240° | 9 kt | Missing | 16° | 60° | 9° | 48° | 63% | 1022 mb | 165 ft | |||
| 05-May | 05:00PM | n/a | 250° | 9 kt | Missing | 17° | 62° | 9° | 48° | 59% | 1022 mb | 285 ft | |||
| 05-May | 04:00PM | n/a | 230° | 9 kt | Missing | 18° | 64° | 9° | 48° | 56% | 1021 mb | 435 ft | |||
| 05-May | 03:00PM | n/a | 210° | 9 kt | Missing | 20° | 68° | 9° | 48° | 49% | 1021 mb | 675 ft | |||
| 05-May | 02:00PM | n/a | 240° | 9 kt | Missing | 19° | 66° | 8° | 46° | 49% | 1021 mb | 555 ft | |||
| 05-May | 01:00PM | n/a | 250° | 9 kt | Missing | 18° | 64° | 9° | 48° | 56% | 1021 mb | 435 ft | |||
| 05-May | 12:00PM | n/a | 210° | 11 kt | Missing | 16° | 60° | 8° | 46° | 59% | 1022 mb | 165 ft | |||
| 05-May | 11:00AM | n/a | 230° | 10 kt | Missing | 17° | 62° | 10° | 50° | 63% | 1022 mb | 285 ft | |||
| 05-May | 10:00AM | n/a | 230° | 9 kt | Missing | 15° | 59° | 12° | 53° | 82% | 1022 mb | 45 ft | |||
| 05-May | 09:00AM | n/a | 230° | 9 kt | Missing | 13° | 55° | 12° | 53° | 94% | 1021 mb | -165 ft | |||
| 05-May | 08:00AM | n/a | 250° | 8 kt | Missing | 10° | 50° | 10° | 50° | 100% | 1021 mb | -525 ft | |||
| 05-May | 07:00AM | n/a | 260° | 5 kt | Missing | 9° | 48° | 8° | 46° | 93% | 1020 mb | -616 ft | |||
| 05-May | 06:00AM | n/a | 250° | 6 kt | Missing | 9° | 48° | 9° | 48° | 100% | 1019 mb | -586 ft | |||
| 05-May | 05:00AM | n/a | 250° | 8 kt | Missing | 9° | 48° | 9° | 48° | 100% | 1019 mb | -586 ft | |||
| 05-May | 04:00AM | n/a | 250° | 10 kt | Missing | 10° | 50° | 10° | 50° | 100% | 1019 mb | -466 ft | |||
| 05-May | 03:00AM | n/a | 270° | 9 kt | Missing | 12° | 53° | 11° | 51° | 94% | 1018 mb | -197 ft | |||
| 05-May | 02:00AM | n/a | 260° | 7 kt | Missing | 10° | 50° | 10° | 50° | 100% | 1018 mb | -437 ft | |||
| 05-May | 01:00AM | n/a | 270° | 7 kt | Missing | 10° | 50° | 10° | 50° | 100% | 1018 mb | -437 ft | |||
| 05-May | 12:00AM | n/a | 290° | 7 kt | Missing | 12° | 53° | 10° | 50° | 88% | 1018 mb | -197 ft |
Login
| Your browser is unsupported. upgrade your browser |
